Capt. Frank Banta Jr — WDH6399 — position and weather

sailwx.info

Track history (hours):
 
Tides and Currents Weather Stations Pressure Air Temp Water Temp Dewpoint Dewpoint Depression Visibility Wind Speed Wind Dir Waves Ship Positions

Capt. Frank Banta Jr

Owner: Chem Carriers Towing, LLC, Sunshine, LA. More information available from US FCC via Universal Licensing System and Coast Guard Vessel Documentation Center.

Last reported at 2018-Jun-13 05:50 UTC. Time now 2018-Jun-19 10:35 UTC.
Position N 30°20' W 091°13'.

Length 27 m.

Type: Tug. MMSI: 367637540.

Date/timePositionNaut miles runAvg speedWind from/ knotsBaromVisibWave heightAir tempDewpointWater temp
2018-Jun-13 05:50N 30°20' W 091°13'  
2018-Jun-07 16:38N 29°50' W 091°58'1 4.8
2018-Jun-07 16:30N 29°50' W 091°59'2 4.7
2018-Jun-07 16:00N 29°49' W 092°01'2 4.8
2018-Jun-07 15:30N 29°48' W 092°04'3 5.0
2018-Jun-07 15:00N 29°48' W 092°07'2 4.9
2018-Jun-07 14:30N 29°47' W 092°09'1 2.7
2018-Jun-07 14:00N 29°47' W 092°11'0 0.0
2018-Jun-07 13:30N 29°47' W 092°11'0 0.0
2018-Jun-07 13:00N 29°47' W 092°11'0 0.0
2018-Jun-07 12:30N 29°47' W 092°11'0 0.0
2018-Jun-07 12:00N 29°47' W 092°11'0 0.0
2018-Jun-07 11:30N 29°47' W 092°11'0 0.0
2018-Jun-07 10:59N 29°47' W 092°11'0 0.5
2018-Jun-07 10:30N 29°47' W 092°11'1 2.3
2018-Jun-07 10:00N 29°47' W 092°12'1 2.0
2018-Jun-07 09:30N 29°48' W 092°14'1 1.9
2018-Jun-07 09:00N 29°48' W 092°15'1 1.9
2018-Jun-07 08:30N 29°48' W 092°16'0 0.0
2018-Jun-07 08:00N 29°48' W 092°16'0 0.0
2018-Jun-07 07:28N 29°48' W 092°16'0 0.0
2018-Jun-07 07:00N 29°48' W 092°16'0 0.0
2018-Jun-07 06:30N 29°48' W 092°16'0 0.0
2018-Jun-07 06:00N 29°48' W 092°16'0 0.1
2018-Jun-07 05:30N 29°48' W 092°15'0 0.1
2018-Jun-07 05:00N 29°48' W 092°16'0 0.0
2018-Jun-07 04:30N 29°48' W 092°16'0 0.0
2018-Jun-07 04:00N 29°48' W 092°16'0 0.0
2018-Jun-07 03:30N 29°48' W 092°16'0 0.0
2018-Jun-07 02:59N 29°48' W 092°16'0 0.1
2018-Jun-07 02:30N 29°48' W 092°16'0 0.0
2018-Jun-07 02:00N 29°48' W 092°16'0 0.0
2018-Jun-07 01:30N 29°48' W 092°16'0 0.0
2018-Jun-07 01:00N 29°48' W 092°16'0 0.0
2018-Jun-07 00:30N 29°48' W 092°16'0 0.0
2018-Jun-06 23:55N 29°48' W 092°16'1 1.4
2018-Jun-06 23:30N 29°49' W 092°16'2 4.1
2018-Jun-06 23:00N 29°50' W 092°18'2 4.4
2018-Jun-06 22:30N 29°51' W 092°21'2 3.7
2018-Jun-06 21:58N 29°52' W 092°22'2 4.3
2018-Jun-06 21:30N 29°53' W 092°24'35 4.3
2018-Jun-06 13:11N 29°56' W 093°05'1 4.2
2018-Jun-06 12:56N 29°56' W 093°06'2 4.2
2018-Jun-06 12:30N 29°56' W 093°08'2 4.0
2018-Jun-06 12:00N 29°57' W 093°10'2 4.4
2018-Jun-06 11:30N 29°58' W 093°12'2 4.4
2018-Jun-06 11:00N 30°00' W 093°14'2 3.9
2018-Jun-06 10:30N 30°02' W 093°15'2 3.2
2018-Jun-06 10:00N 30°03' W 093°16'1 2.9
2018-Jun-06 09:30N 30°04' W 093°16'1 2.8
2018-Jun-06 09:00N 30°05' W 093°18'1 1.8
2018-Jun-06 08:30N 30°06' W 093°18'1 1.3
2018-Jun-06 08:00N 30°06' W 093°19'0 0.0
2018-Jun-06 07:30N 30°06' W 093°19'0 0.0
2018-Jun-06 07:00N 30°06' W 093°19'0 0.0
2018-Jun-06 06:30N 30°06' W 093°19'0 0.1
2018-Jun-06 06:00N 30°06' W 093°19'0 0.0
2018-Jun-06 05:30N 30°06' W 093°19'0 0.0
2018-Jun-06 05:00N 30°06' W 093°19'0 0.0
2018-Jun-06 04:30N 30°06' W 093°19'0 0.0
2018-Jun-06 03:57N 30°06' W 093°19'0 0.0
2018-Jun-06 03:29N 30°06' W 093°19'1 2.6
2018-Jun-06 02:59N 30°05' W 093°20'2 3.8
2018-Jun-06 02:30N 30°04' W 093°22'2 4.5
2018-Jun-06 02:00N 30°04' W 093°24'2 4.9
2018-Jun-06 01:30N 30°04' W 093°27'2 4.8
2018-Jun-06 01:00N 30°04' W 093°30'2 4.8
2018-Jun-06 00:30N 30°04' W 093°32'2 4.6
2018-Jun-06 00:00N 30°04' W 093°35'2 4.8
2018-Jun-05 23:30N 30°04' W 093°38'2 5.1
2018-Jun-05 23:00N 30°04' W 093°41'2 4.8
2018-Jun-05 22:30N 30°03' W 093°44'2 4.9
2018-Jun-05 22:00N 30°01' W 093°45'3 5.3
2018-Jun-05 21:30N 29°59' W 093°48'3 5.6
2018-Jun-05 21:00N 29°58' W 093°51'2 4.0
2018-Jun-05 20:30N 29°57' W 093°52'3 6.2
2018-Jun-05 20:00N 29°54' W 093°54'3 6.5
2018-Jun-05 19:30N 29°52' W 093°56'3 5.7
2018-Jun-05 19:00N 29°49' W 093°58'3 5.1
2018-Jun-05 18:30N 29°48' W 094°01'3 5.4
2018-Jun-05 18:00N 29°46' W 094°03'3 5.0
2018-Jun-05 17:30N 29°44' W 094°05'3 5.0
2018-Jun-05 17:00N 29°43' W 094°07'2 4.9
2018-Jun-05 16:30N 29°41' W 094°10'2 4.8
2018-Jun-05 16:00N 29°41' W 094°12'3 5.1
2018-Jun-05 15:30N 29°40' W 094°15'3 5.1
2018-Jun-05 15:00N 29°38' W 094°18'3 5.1
2018-Jun-05 14:28N 29°37' W 094°20'2 5.0
2018-Jun-05 13:59N 29°36' W 094°23'1 1.4
2018-Jun-05 13:28N 29°36' W 094°24'1 2.3
2018-Jun-05 12:59N 29°36' W 094°25'1 2.4
2018-Jun-05 12:28N 29°34' W 094°25'0 0.1
2018-Jun-05 10:22N 29°34' W 094°25'0 0.1
2018-Jun-05 09:56N 29°34' W 094°25'0 0.0
2018-Jun-05 09:30N 29°34' W 094°25'0 0.0
2018-Jun-05 08:46N 29°34' W 094°25'0 0.2
2018-Jun-05 08:24N 29°34' W 094°25'4 3.3
2018-Jun-05 07:12N 29°32' W 094°29'2 4.5
2018-Jun-05 06:50N 29°31' W 094°30'2 4.6
2018-Jun-05 06:22N 29°30' W 094°33'0 0.6
2018-Jun-05 05:50N 29°30' W 094°33'0 0.0
2018-Jun-05 05:27N 29°30' W 094°33'0 0.2
2018-Jun-05 05:00N 29°30' W 094°33'1 3.0
2018-Jun-05 04:30N 29°29' W 094°35'2 4.3
2018-Jun-05 04:00N 29°29' W 094°37'2 4.4
2018-Jun-05 03:30N 29°28' W 094°39'2 4.4
2018-Jun-05 03:00N 29°27' W 094°42'2 4.4
2018-Jun-05 02:30N 29°25' W 094°44'1 2.7
2018-Jun-05 02:00N 29°24' W 094°45'2 4.0
2018-Jun-05 01:30N 29°23' W 094°46'13 6.5
2018-Jun-04 23:28N 29°34' W 094°55'4 7.7
2018-Jun-04 23:00N 29°37' W 094°57'4 7.4
2018-Jun-04 22:29N 29°40' W 094°59'  
Track history (hours):
 
Tides and Currents Weather Stations Pressure Air Temp Water Temp Dewpoint Dewpoint Depression Visibility Wind Speed Wind Dir Waves Ship Positions

Capt. Frank Banta Jr

Owner: Chem Carriers Towing, LLC, Sunshine, LA. More information available from US FCC via Universal Licensing System and Coast Guard Vessel Documentation Center.

Last reported at 2018-Jun-13 05:50 UTC. Time now 2018-Jun-19 10:35 UTC.
Position N 30°20' W 091°13'.

Length 27 m.

Type: Tug. MMSI: 367637540.

Date/timePositionNaut miles runAvg speedWind from/ knotsBaromVisibWave heightAir tempDewpointWater temp
2018-Jun-13 05:50N 30°20' W 091°13'  
2018-Jun-07 16:38N 29°50' W 091°58'1 4.8
2018-Jun-07 16:30N 29°50' W 091°59'2 4.7
2018-Jun-07 16:00N 29°49' W 092°01'2 4.8
2018-Jun-07 15:30N 29°48' W 092°04'3 5.0
2018-Jun-07 15:00N 29°48' W 092°07'2 4.9
2018-Jun-07 14:30N 29°47' W 092°09'1 2.7
2018-Jun-07 14:00N 29°47' W 092°11'0 0.0
2018-Jun-07 13:30N 29°47' W 092°11'0 0.0
2018-Jun-07 13:00N 29°47' W 092°11'0 0.0
2018-Jun-07 12:30N 29°47' W 092°11'0 0.0
2018-Jun-07 12:00N 29°47' W 092°11'0 0.0
2018-Jun-07 11:30N 29°47' W 092°11'0 0.0
2018-Jun-07 10:59N 29°47' W 092°11'0 0.5
2018-Jun-07 10:30N 29°47' W 092°11'1 2.3
2018-Jun-07 10:00N 29°47' W 092°12'1 2.0
2018-Jun-07 09:30N 29°48' W 092°14'1 1.9
2018-Jun-07 09:00N 29°48' W 092°15'1 1.9
2018-Jun-07 08:30N 29°48' W 092°16'0 0.0
2018-Jun-07 08:00N 29°48' W 092°16'0 0.0
2018-Jun-07 07:28N 29°48' W 092°16'0 0.0
2018-Jun-07 07:00N 29°48' W 092°16'0 0.0
2018-Jun-07 06:30N 29°48' W 092°16'0 0.0
2018-Jun-07 06:00N 29°48' W 092°16'0 0.1
2018-Jun-07 05:30N 29°48' W 092°15'0 0.1
2018-Jun-07 05:00N 29°48' W 092°16'0 0.0
2018-Jun-07 04:30N 29°48' W 092°16'0 0.0
2018-Jun-07 04:00N 29°48' W 092°16'0 0.0
2018-Jun-07 03:30N 29°48' W 092°16'0 0.0
2018-Jun-07 02:59N 29°48' W 092°16'0 0.1
2018-Jun-07 02:30N 29°48' W 092°16'0 0.0
2018-Jun-07 02:00N 29°48' W 092°16'0 0.0
2018-Jun-07 01:30N 29°48' W 092°16'0 0.0
2018-Jun-07 01:00N 29°48' W 092°16'0 0.0
2018-Jun-07 00:30N 29°48' W 092°16'0 0.0
2018-Jun-06 23:55N 29°48' W 092°16'1 1.4
2018-Jun-06 23:30N 29°49' W 092°16'2 4.1
2018-Jun-06 23:00N 29°50' W 092°18'2 4.4
2018-Jun-06 22:30N 29°51' W 092°21'2 3.7
2018-Jun-06 21:58N 29°52' W 092°22'2 4.3
2018-Jun-06 21:30N 29°53' W 092°24'35 4.3
2018-Jun-06 13:11N 29°56' W 093°05'1 4.2
2018-Jun-06 12:56N 29°56' W 093°06'2 4.2
2018-Jun-06 12:30N 29°56' W 093°08'2 4.0
2018-Jun-06 12:00N 29°57' W 093°10'2 4.4
2018-Jun-06 11:30N 29°58' W 093°12'2 4.4
2018-Jun-06 11:00N 30°00' W 093°14'2 3.9
2018-Jun-06 10:30N 30°02' W 093°15'2 3.2
2018-Jun-06 10:00N 30°03' W 093°16'1 2.9
2018-Jun-06 09:30N 30°04' W 093°16'1 2.8
2018-Jun-06 09:00N 30°05' W 093°18'1 1.8
2018-Jun-06 08:30N 30°06' W 093°18'1 1.3
2018-Jun-06 08:00N 30°06' W 093°19'0 0.0
2018-Jun-06 07:30N 30°06' W 093°19'0 0.0
2018-Jun-06 07:00N 30°06' W 093°19'0 0.0
2018-Jun-06 06:30N 30°06' W 093°19'0 0.1
2018-Jun-06 06:00N 30°06' W 093°19'0 0.0
2018-Jun-06 05:30N 30°06' W 093°19'0 0.0
2018-Jun-06 05:00N 30°06' W 093°19'0 0.0
2018-Jun-06 04:30N 30°06' W 093°19'0 0.0
2018-Jun-06 03:57N 30°06' W 093°19'0 0.0
2018-Jun-06 03:29N 30°06' W 093°19'1 2.6
2018-Jun-06 02:59N 30°05' W 093°20'2 3.8
2018-Jun-06 02:30N 30°04' W 093°22'2 4.5
2018-Jun-06 02:00N 30°04' W 093°24'2 4.9
2018-Jun-06 01:30N 30°04' W 093°27'2 4.8
2018-Jun-06 01:00N 30°04' W 093°30'2 4.8
2018-Jun-06 00:30N 30°04' W 093°32'2 4.6
2018-Jun-06 00:00N 30°04' W 093°35'2 4.8
2018-Jun-05 23:30N 30°04' W 093°38'2 5.1
2018-Jun-05 23:00N 30°04' W 093°41'2 4.8
2018-Jun-05 22:30N 30°03' W 093°44'2 4.9
2018-Jun-05 22:00N 30°01' W 093°45'3 5.3
2018-Jun-05 21:30N 29°59' W 093°48'3 5.6
2018-Jun-05 21:00N 29°58' W 093°51'2 4.0
2018-Jun-05 20:30N 29°57' W 093°52'3 6.2
2018-Jun-05 20:00N 29°54' W 093°54'3 6.5
2018-Jun-05 19:30N 29°52' W 093°56'3 5.7
2018-Jun-05 19:00N 29°49' W 093°58'3 5.1
2018-Jun-05 18:30N 29°48' W 094°01'3 5.4
2018-Jun-05 18:00N 29°46' W 094°03'3 5.0
2018-Jun-05 17:30N 29°44' W 094°05'3 5.0
2018-Jun-05 17:00N 29°43' W 094°07'2 4.9
2018-Jun-05 16:30N 29°41' W 094°10'2 4.8
2018-Jun-05 16:00N 29°41' W 094°12'3 5.1
2018-Jun-05 15:30N 29°40' W 094°15'3 5.1
2018-Jun-05 15:00N 29°38' W 094°18'3 5.1
2018-Jun-05 14:28N 29°37' W 094°20'2 5.0
2018-Jun-05 13:59N 29°36' W 094°23'1 1.4
2018-Jun-05 13:28N 29°36' W 094°24'1 2.3
2018-Jun-05 12:59N 29°36' W 094°25'1 2.4
2018-Jun-05 12:28N 29°34' W 094°25'0 0.1
2018-Jun-05 10:22N 29°34' W 094°25'0 0.1
2018-Jun-05 09:56N 29°34' W 094°25'0 0.0
2018-Jun-05 09:30N 29°34' W 094°25'0 0.0
2018-Jun-05 08:46N 29°34' W 094°25'0 0.2
2018-Jun-05 08:24N 29°34' W 094°25'4 3.3
2018-Jun-05 07:12N 29°32' W 094°29'2 4.5
2018-Jun-05 06:50N 29°31' W 094°30'2 4.6
2018-Jun-05 06:22N 29°30' W 094°33'0 0.6
2018-Jun-05 05:50N 29°30' W 094°33'0 0.0
2018-Jun-05 05:27N 29°30' W 094°33'0 0.2
2018-Jun-05 05:00N 29°30' W 094°33'1 3.0
2018-Jun-05 04:30N 29°29' W 094°35'2 4.3
2018-Jun-05 04:00N 29°29' W 094°37'2 4.4
2018-Jun-05 03:30N 29°28' W 094°39'2 4.4
2018-Jun-05 03:00N 29°27' W 094°42'2 4.4
2018-Jun-05 02:30N 29°25' W 094°44'1 2.7
2018-Jun-05 02:00N 29°24' W 094°45'2 4.0
2018-Jun-05 01:30N 29°23' W 094°46'13 6.5
2018-Jun-04 23:28N 29°34' W 094°55'4 7.7
2018-Jun-04 23:00N 29°37' W 094°57'4 7.4
2018-Jun-04 22:29N 29°40' W 094°59'  

Dump ship's entire track history